createdAt,value
2023-08-14T00:01:36.090Z,19.98
2023-08-14T00:05:39.457Z,20.00
2023-08-14T00:09:42.773Z,20.10
2023-08-14T00:13:50.759Z,20.18
2023-08-14T00:17:54.876Z,20.31
2023-08-14T00:21:58.225Z,20.41
2023-08-14T00:26:01.538Z,20.45
2023-08-14T00:30:05.943Z,20.48
2023-08-14T00:34:09.377Z,20.41
2023-08-14T00:38:14.734Z,20.29
2023-08-14T00:42:18.905Z,20.04
2023-08-14T00:46:22.564Z,19.97
2023-08-14T00:50:25.985Z,19.97
2023-08-14T00:54:29.366Z,19.98
2023-08-14T00:58:33.561Z,19.99
2023-08-14T01:02:37.868Z,20.05
2023-08-14T01:06:41.286Z,20.19
2023-08-14T01:10:48.176Z,20.32
2023-08-14T01:15:02.808Z,20.44
2023-08-14T01:19:11.987Z,20.45
2023-08-14T01:23:41.666Z,20.36
2023-08-14T01:27:51.332Z,20.30
2023-08-14T01:31:54.600Z,20.26
2023-08-14T01:36:13.749Z,20.25
2023-08-14T01:40:26.364Z,20.27
2023-08-14T01:44:39.775Z,20.28
2023-08-14T01:48:44.194Z,20.30
2023-08-14T01:52:51.797Z,20.31
2023-08-14T01:56:57.837Z,20.29
2023-08-14T02:01:01.149Z,20.26
2023-08-14T02:05:05.173Z,20.24
2023-08-14T02:09:08.530Z,20.20
2023-08-14T02:13:11.822Z,20.16
2023-08-14T02:17:15.173Z,20.13
2023-08-14T02:21:19.186Z,20.15
2023-08-14T02:25:23.448Z,20.15
2023-08-14T02:29:26.933Z,20.10
2023-08-14T02:33:30.165Z,20.01
2023-08-14T02:37:33.451Z,19.94
2023-08-14T02:41:36.804Z,19.96
2023-08-14T02:45:40.162Z,19.77
2023-08-14T02:49:43.542Z,19.55
2023-08-14T02:53:50.146Z,19.50
2023-08-14T02:57:53.435Z,19.51
2023-08-14T03:01:56.928Z,19.51
2023-08-14T03:06:00.579Z,19.61
2023-08-14T03:10:04.179Z,19.64
2023-08-14T03:14:07.896Z,19.61
2023-08-14T03:18:11.799Z,19.49
2023-08-14T03:22:15.364Z,19.46
2023-08-14T03:26:19.440Z,19.52
2023-08-14T03:30:25.547Z,19.56
2023-08-14T03:34:29.670Z,19.61
2023-08-14T03:38:32.997Z,19.65
2023-08-14T03:42:36.900Z,19.71
2023-08-14T03:46:40.751Z,19.77
2023-08-14T03:50:48.678Z,19.75
2023-08-14T03:54:52.138Z,19.73
2023-08-14T03:58:55.941Z,19.77
2023-08-14T04:03:00.349Z,19.87
2023-08-14T04:07:06.198Z,19.95
2023-08-14T04:11:18.858Z,19.99
2023-08-14T04:15:23.146Z,19.93
2023-08-14T04:19:27.225Z,19.66
2023-08-14T04:23:39.249Z,19.46
2023-08-14T04:27:43.166Z,19.46
2023-08-14T04:31:59.049Z,19.60
2023-08-14T04:36:02.352Z,19.72
2023-08-14T04:40:09.522Z,19.85
2023-08-14T04:44:13.372Z,19.94
2023-08-14T04:48:24.932Z,20.06
2023-08-14T04:52:28.353Z,20.16
2023-08-14T04:56:38.009Z,20.20
2023-08-14T05:00:41.333Z,20.20
2023-08-14T05:04:49.795Z,20.13
2023-08-14T05:08:54.050Z,20.12
2023-08-14T05:12:57.390Z,20.24
2023-08-14T05:17:03.151Z,20.39
2023-08-14T05:21:07.220Z,20.60
2023-08-14T05:25:23.293Z,20.93
2023-08-14T05:30:08.800Z,21.26
2023-08-14T05:34:12.893Z,21.51
2023-08-14T05:38:17.700Z,21.80
2023-08-14T05:42:21.657Z,22.04
2023-08-14T05:46:25.717Z,22.29
2023-08-14T05:50:29.740Z,22.54
2023-08-14T05:54:33.172Z,22.78
2023-08-14T05:58:36.448Z,22.95
2023-08-14T06:02:39.992Z,23.05
2023-08-14T06:06:43.500Z,23.15
2023-08-14T06:10:47.140Z,23.22
2023-08-14T06:14:52.150Z,23.39
2023-08-14T06:18:55.594Z,23.50
2023-08-14T06:23:00.054Z,23.56
2023-08-14T06:27:03.541Z,23.62
2023-08-14T06:31:07.068Z,23.70
2023-08-14T06:35:10.932Z,23.73
2023-08-14T06:39:14.297Z,23.77
2023-08-14T06:43:18.112Z,23.85
2023-08-14T06:47:21.802Z,23.91
2023-08-14T06:51:25.626Z,23.99
2023-08-14T06:55:28.941Z,24.08
2023-08-14T06:59:33.596Z,24.11
2023-08-14T07:03:37.016Z,24.07
2023-08-14T07:07:41.441Z,24.02
2023-08-14T07:11:45.124Z,24.00
2023-08-14T07:15:51.324Z,24.02
2023-08-14T07:19:54.682Z,24.17
2023-08-14T07:23:58.082Z,24.35
2023-08-14T07:28:01.459Z,24.57
2023-08-14T07:32:05.151Z,24.83
2023-08-14T07:36:12.054Z,25.06
2023-08-14T07:40:19.490Z,25.38
2023-08-14T07:44:26.061Z,25.66
2023-08-14T07:48:31.914Z,25.89
2023-08-14T07:52:38.444Z,26.08
2023-08-14T07:56:46.084Z,26.17
2023-08-14T08:00:50.887Z,26.22
2023-08-14T08:04:56.484Z,26.23
2023-08-14T08:09:00.640Z,26.23
2023-08-14T08:13:04.293Z,26.23
2023-08-14T08:17:12.969Z,26.22
2023-08-14T08:21:19.441Z,26.23
2023-08-14T08:25:22.819Z,26.27
2023-08-14T08:29:26.583Z,26.31
2023-08-14T08:33:29.994Z,26.35
2023-08-14T08:37:33.356Z,26.35
2023-08-14T08:41:42.303Z,26.42
2023-08-14T08:45:51.602Z,26.40
2023-08-14T08:49:56.023Z,26.33
2023-08-14T08:54:01.341Z,26.26
2023-08-14T08:58:06.932Z,26.21
2023-08-14T09:02:14.062Z,26.22
2023-08-14T09:06:32.603Z,26.27
2023-08-14T09:10:43.153Z,26.38
2023-08-14T09:15:11.110Z,26.49
2023-08-14T09:19:16.693Z,26.57
2023-08-14T09:23:21.568Z,26.66
2023-08-14T09:27:30.867Z,26.73
2023-08-14T09:32:10.029Z,26.79
2023-08-14T09:36:21.995Z,26.81
2023-08-14T09:41:26.779Z,26.73
2023-08-14T09:45:42.108Z,26.69
2023-08-14T09:50:01.952Z,26.72
2023-08-14T09:54:20.039Z,26.75
2023-08-14T09:58:27.546Z,26.81
2023-08-14T10:02:34.341Z,26.87
2023-08-14T10:06:37.908Z,26.93
2023-08-14T10:11:05.385Z,26.89
2023-08-14T10:15:19.771Z,26.97
2023-08-14T10:19:34.912Z,27.14
2023-08-14T10:23:53.081Z,27.18
2023-08-14T10:28:33.081Z,27.22
2023-08-14T10:32:40.826Z,27.29
2023-08-14T10:36:56.818Z,27.42
2023-08-14T10:45:42.201Z,27.77
2023-08-14T10:49:53.436Z,28.00
2023-08-14T10:54:17.452Z,28.06
2023-08-14T10:58:43.301Z,28.19
2023-08-14T11:02:55.121Z,28.37
2023-08-14T11:07:13.378Z,28.53
2023-08-14T11:11:25.843Z,28.48
2023-08-14T11:15:44.329Z,28.47
2023-08-14T11:20:10.775Z,28.66
2023-08-14T11:24:26.442Z,28.85
2023-08-14T11:28:49.261Z,28.90
2023-08-14T11:33:26.002Z,29.16
2023-08-14T11:38:48.313Z,29.43
2023-08-14T11:43:30.618Z,29.60
2023-08-14T11:48:11.635Z,29.81
2023-08-14T11:52:41.076Z,30.14
2023-08-14T11:56:57.030Z,30.28
2023-08-14T12:01:29.419Z,30.38
2023-08-14T12:08:37.625Z,30.54
2023-08-14T12:23:31.757Z,31.17
2023-08-14T13:47:18.626Z,32.00
2023-08-14T14:10:36.097Z,32.52
2023-08-14T16:16:17.279Z,32.71
2023-08-14T16:28:59.151Z,32.62
2023-08-14T16:37:07.706Z,32.33
2023-08-14T16:46:43.504Z,31.98
2023-08-14T16:51:50.705Z,31.89
2023-08-14T16:57:09.925Z,31.76
2023-08-14T17:02:23.697Z,31.52
2023-08-14T17:07:10.023Z,31.22
2023-08-14T17:11:51.115Z,30.95
2023-08-14T17:17:07.862Z,30.77
2023-08-14T17:21:58.447Z,30.54
2023-08-14T17:26:33.003Z,30.22
2023-08-14T17:31:15.613Z,29.92
2023-08-14T17:35:47.794Z,29.61
2023-08-14T17:45:21.566Z,28.96
2023-08-14T17:49:57.034Z,28.73
2023-08-14T17:54:14.524Z,28.52
2023-08-14T17:58:45.264Z,28.36
2023-08-14T18:04:40.956Z,28.19
2023-08-14T18:08:48.930Z,28.07
2023-08-14T18:12:55.636Z,27.91
2023-08-14T18:16:58.172Z,27.71
2023-08-14T18:21:06.236Z,27.57
2023-08-14T18:25:12.530Z,27.45
2023-08-14T18:29:25.092Z,27.34
2023-08-14T18:33:36.940Z,27.21
2023-08-14T18:38:15.245Z,27.06
2023-08-14T18:42:40.651Z,26.97
2023-08-14T18:46:59.382Z,26.85
2023-08-14T18:51:36.995Z,26.78
2023-08-14T18:55:51.356Z,26.64
2023-08-14T18:59:56.825Z,26.36
2023-08-14T19:04:16.988Z,26.11
2023-08-14T19:08:39.276Z,25.82
2023-08-14T19:12:50.557Z,25.62
2023-08-14T19:16:56.499Z,25.50
2023-08-14T19:21:13.272Z,25.40
2023-08-14T19:25:24.552Z,25.25
2023-08-14T19:29:34.239Z,25.10
2023-08-14T19:33:43.324Z,25.04
2023-08-14T19:37:56.878Z,25.07
2023-08-14T19:42:06.814Z,25.07
2023-08-14T19:46:17.651Z,25.06
2023-08-14T19:50:22.925Z,25.02
2023-08-14T19:54:25.264Z,24.87
2023-08-14T19:58:33.197Z,24.69
2023-08-14T20:02:36.976Z,24.55
2023-08-14T20:06:43.929Z,24.45
2023-08-14T20:10:49.515Z,24.35
2023-08-14T20:14:59.789Z,24.28
2023-08-14T20:19:07.609Z,24.26
2023-08-14T20:23:13.845Z,24.28
2023-08-14T20:27:22.365Z,24.33
2023-08-14T20:31:25.947Z,24.34
2023-08-14T20:35:50.199Z,24.28
2023-08-14T20:39:56.815Z,24.17
2023-08-14T20:44:02.906Z,24.12
2023-08-14T20:48:17.053Z,24.06
2023-08-14T20:52:26.161Z,23.94
2023-08-14T20:56:31.364Z,23.78
2023-08-14T21:00:49.462Z,23.65
2023-08-14T21:04:56.149Z,23.56
2023-08-14T21:09:01.676Z,23.52
2023-08-14T21:13:10.963Z,23.48
2023-08-14T21:17:15.763Z,23.50
2023-08-14T21:21:20.572Z,23.50
2023-08-14T21:25:51.879Z,23.51
2023-08-14T21:30:02.033Z,23.52
2023-08-14T21:34:13.875Z,23.50
2023-08-14T21:38:23.991Z,23.43
2023-08-14T21:42:32.867Z,23.35
2023-08-14T21:46:37.190Z,23.33
2023-08-14T21:50:55.510Z,23.26
2023-08-14T21:55:06.617Z,23.27
2023-08-14T21:59:13.937Z,23.27
2023-08-14T22:03:32.485Z,23.23
2023-08-14T22:07:37.874Z,23.10
2023-08-14T22:11:40.362Z,23.07
2023-08-14T22:15:46.741Z,23.05
2023-08-14T22:19:52.623Z,23.05
2023-08-14T22:23:56.942Z,22.99
2023-08-14T22:28:00.081Z,22.77
2023-08-14T22:32:05.951Z,22.60
2023-08-14T22:36:14.367Z,22.53
2023-08-14T22:40:23.334Z,22.54
2023-08-14T22:44:27.746Z,22.58
2023-08-14T22:48:34.652Z,22.64
2023-08-14T22:53:02.822Z,22.63
2023-08-14T22:57:07.261Z,22.63
2023-08-14T23:01:17.428Z,22.59
2023-08-14T23:05:51.797Z,22.55
2023-08-14T23:09:59.516Z,22.55
2023-08-14T23:14:05.071Z,22.55
2023-08-14T23:18:09.737Z,22.52
2023-08-14T23:22:22.851Z,22.40
2023-08-14T23:26:25.873Z,22.37
2023-08-14T23:30:37.854Z,22.35
2023-08-14T23:34:53.536Z,22.31
2023-08-14T23:38:56.880Z,22.24
2023-08-14T23:43:04.223Z,22.21
2023-08-14T23:47:15.159Z,22.18
2023-08-14T23:51:28.251Z,22.12
2023-08-14T23:55:50.662Z,22.03
2023-08-14T23:59:56.516Z,21.99
